createdAt,value
2018-10-02T07:40:41.207Z,95378.33
2018-10-02T07:43:11.247Z,95376.58
2018-10-02T07:45:41.996Z,95378.64
2018-10-02T07:48:12.643Z,95379.81
2018-10-02T07:50:44.332Z,95385.50
2018-10-02T07:53:14.689Z,95388.79
2018-10-02T07:55:46.078Z,95391.65
2018-10-02T07:58:20.893Z,95389.81
2018-10-02T08:00:52.652Z,95389.01
2018-10-02T08:03:24.379Z,95389.00
2018-10-02T08:05:55.013Z,95391.52
2018-10-02T08:08:26.069Z,95398.86
2018-10-02T08:10:57.683Z,95402.14
2018-10-02T08:13:27.556Z,95400.11
2018-10-02T08:15:57.495Z,95397.97
2018-10-02T08:18:27.590Z,95407.75
2018-10-02T08:20:58.132Z,95406.04
2018-10-02T08:23:28.164Z,95404.31
2018-10-02T08:25:58.150Z,95395.14
2018-10-02T08:28:28.140Z,95398.83
2018-10-02T08:30:58.605Z,95402.84
2018-10-02T08:33:28.635Z,95406.91
2018-10-02T08:35:58.794Z,95410.72
2018-10-02T08:38:28.709Z,95414.00
2018-10-02T08:40:59.332Z,95419.16
2018-10-02T08:43:29.291Z,95416.02
2018-10-02T08:45:58.992Z,95403.27
2018-10-02T08:48:29.086Z,95400.98
2018-10-02T08:51:01.563Z,95400.66
2018-10-02T08:53:32.451Z,95398.13
2018-10-02T08:56:02.547Z,95402.58
2018-10-02T08:58:32.485Z,95404.86
2018-10-02T09:01:03.085Z,95399.80
2018-10-02T09:03:33.166Z,95399.28
2018-10-02T09:06:03.118Z,95385.62
2018-10-02T09:08:33.078Z,95390.12
2018-10-02T09:11:03.833Z,95395.88
2018-10-02T09:13:33.867Z,95401.80
2018-10-02T09:16:03.972Z,95390.09
2018-10-02T09:18:33.955Z,95392.06
2018-10-02T09:21:04.851Z,95388.48
2018-10-02T09:23:35.246Z,95383.83
2018-10-02T09:26:05.287Z,95382.12
2018-10-02T09:28:35.225Z,95385.45
2018-10-02T09:31:11.137Z,95376.24
2018-10-02T09:33:46.213Z,95383.98
2018-10-02T09:36:21.148Z,95379.38
2018-10-02T09:38:57.621Z,95377.62
2018-10-02T09:41:32.691Z,95378.05
2018-10-02T09:44:04.264Z,95368.02
2018-10-02T09:46:34.126Z,95370.80
2018-10-02T09:49:04.266Z,95364.94
2018-10-02T09:51:34.712Z,95361.73
2018-10-02T09:54:04.875Z,95370.62
2018-10-02T09:56:40.065Z,95360.58
2018-10-02T09:59:10.167Z,95357.74
2018-10-02T10:01:45.289Z,95352.45
2018-10-02T10:04:16.246Z,95356.33
2018-10-02T10:06:47.280Z,95352.58
2018-10-02T10:09:17.747Z,95353.60
2018-10-02T10:11:49.654Z,95351.03
2018-10-02T10:14:20.482Z,95335.92
2018-10-02T10:16:51.417Z,95332.78
2018-10-02T10:19:22.270Z,95334.31
2018-10-02T10:21:54.198Z,95330.33
2018-10-02T10:24:24.535Z,95324.33
2018-10-02T10:26:55.059Z,95326.38
2018-10-02T10:29:26.642Z,95325.35
2018-10-02T10:31:59.336Z,95318.77
2018-10-02T10:34:34.600Z,95311.57
2018-10-02T10:37:05.692Z,95302.39
2018-10-02T10:39:36.474Z,95308.30
2018-10-02T10:42:09.496Z,95298.67
2018-10-02T10:44:40.639Z,95298.22
2018-10-02T10:47:12.020Z,95300.09
2018-10-02T10:49:42.994Z,95295.70
2018-10-02T10:52:14.085Z,95291.55
2018-10-02T10:54:54.323Z,95285.32
2018-10-02T10:57:25.234Z,95287.29
2018-10-02T10:59:55.759Z,95288.38
2018-10-02T11:02:27.089Z,95281.77
2018-10-02T11:04:58.156Z,95278.03
2018-10-02T11:07:29.479Z,95268.50
2018-10-02T11:10:00.092Z,95262.61
2018-10-02T11:12:30.943Z,95273.97
2018-10-02T11:15:01.548Z,95264.82
2018-10-02T11:17:32.749Z,95264.25
2018-10-02T11:20:05.065Z,95263.94
2018-10-02T11:22:37.195Z,95257.88
2018-10-02T11:25:08.846Z,95257.36
2018-10-02T11:27:39.685Z,95250.36
2018-10-02T11:30:10.915Z,95257.05
2018-10-02T11:32:41.395Z,95249.70
2018-10-02T11:35:11.959Z,95250.90
2018-10-02T11:37:42.916Z,95250.72
2018-10-02T11:40:14.393Z,95251.20
2018-10-02T11:42:46.755Z,95251.45
2018-10-02T11:45:17.462Z,95251.14
2018-10-02T11:47:49.298Z,95258.27
2018-10-02T11:50:20.042Z,95258.84
2018-10-02T11:52:52.706Z,95252.45
2018-10-02T11:55:24.097Z,95254.48
2018-10-02T11:57:54.877Z,95251.62
2018-10-02T12:00:26.083Z,95253.81
2018-10-02T12:02:57.623Z,95256.55
2018-10-02T12:05:28.789Z,95255.98
2018-10-02T12:07:59.780Z,95263.08
2018-10-02T12:10:30.359Z,95256.55
2018-10-02T12:13:02.579Z,95256.64
2018-10-02T12:15:33.922Z,95250.98
2018-10-02T12:18:04.491Z,95250.53
2018-10-02T12:20:35.848Z,95251.22
2018-10-02T12:23:08.161Z,95244.03
2018-10-02T12:25:39.503Z,95245.46
2018-10-02T12:28:10.756Z,95239.55
2018-10-02T12:30:41.567Z,95241.61
2018-10-02T12:33:13.130Z,95236.14
2018-10-02T12:35:44.495Z,95229.94
2018-10-02T12:38:15.414Z,95224.25
2018-10-02T12:40:46.398Z,95218.59
2018-10-02T12:43:19.264Z,95217.61
2018-10-02T12:45:50.651Z,95218.05
2018-10-02T12:48:21.594Z,95216.43
2018-10-02T12:50:52.927Z,95213.55
2018-10-02T12:53:25.559Z,95221.34
2018-10-02T12:55:55.971Z,95220.53
2018-10-02T12:58:27.152Z,95224.82
2018-10-02T13:00:58.125Z,95234.84
2018-10-02T13:03:29.049Z,95231.03
2018-10-02T13:05:59.006Z,95231.92
2018-10-02T13:08:28.962Z,95227.34
2018-10-02T13:10:58.980Z,95216.75
2018-10-02T13:13:29.602Z,95223.59
2018-10-02T13:15:59.679Z,95226.16
2018-10-02T13:18:29.678Z,95230.97
2018-10-02T13:20:59.679Z,95234.36
2018-10-02T13:23:30.333Z,95233.46
2018-10-02T13:26:00.427Z,95237.87
2018-10-02T13:28:30.458Z,95235.38
2018-10-02T13:31:00.495Z,95235.52
2018-10-02T13:33:30.390Z,95235.20
2018-10-02T13:36:00.556Z,95238.59
2018-10-02T13:38:30.347Z,95231.13
2018-10-02T13:41:00.315Z,95227.16
2018-10-02T13:43:30.786Z,95241.55
2018-10-02T13:46:00.845Z,95243.44
2018-10-02T13:48:30.829Z,95250.04
2018-10-02T13:51:00.824Z,95247.28
2018-10-02T13:53:31.610Z,95241.53
2018-10-02T13:56:01.761Z,95246.09
2018-10-02T13:58:31.720Z,95255.03
2018-10-02T14:01:01.822Z,95257.66
2018-10-02T14:03:32.919Z,95252.07
2018-10-02T14:06:02.869Z,95256.28
2018-10-02T14:08:32.871Z,95251.14
2018-10-02T14:11:03.049Z,95248.20
2018-10-02T14:13:33.819Z,95251.95
2018-10-02T14:16:03.844Z,95252.13
2018-10-02T14:18:33.862Z,95248.80
2018-10-02T14:21:03.808Z,95255.89
2018-10-02T14:23:34.193Z,95263.38
2018-10-02T14:26:04.256Z,95262.20
2018-10-02T14:28:34.278Z,95265.74
2018-10-02T14:31:04.364Z,95263.47
2018-10-02T14:33:35.439Z,95267.33
2018-10-02T14:36:06.010Z,95270.30
2018-10-02T14:38:37.313Z,95275.53
2018-10-02T14:41:08.183Z,95276.58
2018-10-02T14:43:39.839Z,95277.06
2018-10-02T14:46:11.286Z,95274.45
2018-10-02T14:48:41.863Z,95272.88
2018-10-02T14:51:12.546Z,95276.17
2018-10-02T14:53:43.935Z,95272.91
2018-10-02T14:56:14.369Z,95278.88
2018-10-02T14:58:45.238Z,95268.90
2018-10-02T15:01:16.521Z,95270.84
2018-10-02T15:03:47.603Z,95272.66
2018-10-02T15:06:18.611Z,95273.92
2018-10-02T15:08:49.641Z,95279.52
2018-10-02T15:11:21.192Z,95284.91
2018-10-02T15:13:53.546Z,95287.22
2018-10-02T15:16:24.612Z,95284.78
2018-10-02T15:18:55.449Z,95284.29
2018-10-02T15:21:26.235Z,95284.45
2018-10-02T15:23:57.726Z,95279.80
2018-10-02T15:26:28.416Z,95280.67
2018-10-02T15:28:59.972Z,95286.94
2018-10-02T15:31:31.245Z,95290.54
2018-10-02T15:34:01.943Z,95290.73
2018-10-02T15:36:33.232Z,95287.80
2018-10-02T15:39:04.946Z,95288.64
2018-10-02T15:41:35.973Z,95291.30
2018-10-02T15:44:07.879Z,95300.72
2018-10-02T15:46:38.725Z,95298.25
2018-10-02T15:49:10.135Z,95297.69
2018-10-02T15:51:40.882Z,95301.52
2018-10-02T15:54:11.997Z,95304.02
2018-10-02T15:56:42.543Z,95299.58
2018-10-02T15:59:13.402Z,95305.11
2018-10-02T16:01:44.706Z,95311.12
2018-10-02T16:04:16.550Z,95303.98
2018-10-02T16:06:47.637Z,95304.50
2018-10-02T16:09:18.516Z,95311.19
2018-10-02T16:11:49.735Z,95315.25
2018-10-02T16:14:21.508Z,95311.66
2018-10-02T16:16:52.720Z,95311.44
2018-10-02T16:19:23.672Z,95314.58
2018-10-02T16:21:54.685Z,95318.75
2018-10-02T16:24:25.636Z,95325.27
2018-10-02T16:26:56.713Z,95326.69
2018-10-02T16:29:28.146Z,95332.58
2018-10-02T16:31:59.272Z,95344.03
2018-10-02T16:34:31.185Z,95351.01
2018-10-02T16:37:01.288Z,95351.56
2018-10-02T16:39:31.209Z,95356.30
2018-10-02T16:42:01.265Z,95353.23
2018-10-02T16:44:33.482Z,95357.17
2018-10-02T16:47:03.649Z,95361.80
2018-10-02T16:49:33.678Z,95364.73
2018-10-02T16:52:03.727Z,95368.64
2018-10-02T16:54:37.238Z,95368.77
2018-10-02T16:57:07.580Z,95375.37
2018-10-02T16:59:37.673Z,95381.01
2018-10-02T17:02:07.628Z,95383.95
2018-10-02T17:04:37.801Z,95389.75
2018-10-02T17:07:07.839Z,95391.09
2018-10-02T17:09:38.399Z,95401.01
2018-10-02T17:12:09.281Z,95405.54
2018-10-02T17:14:40.940Z,95412.72
2018-10-02T17:17:12.186Z,95411.33
2018-10-02T17:19:42.717Z,95426.41
2018-10-02T17:22:14.284Z,95420.21
2018-10-02T17:24:45.631Z,95421.36
2018-10-02T17:27:16.378Z,95430.84
2018-10-02T17:29:47.245Z,95434.67
2018-10-02T17:32:18.294Z,95430.28
2018-10-02T17:34:50.020Z,95436.45
2018-10-02T17:37:20.947Z,95438.16
2018-10-02T17:39:51.975Z,95442.09
2018-10-02T17:42:22.688Z,95444.23
2018-10-02T17:44:54.050Z,95447.61
2018-10-02T17:47:24.803Z,95453.87
2018-10-02T17:49:55.647Z,95461.30
2018-10-02T17:52:26.805Z,95451.40
2018-10-02T17:54:58.400Z,95459.95
2018-10-02T17:57:29.517Z,95459.90
2018-10-02T18:00:00.543Z,95464.31
2018-10-02T18:02:31.414Z,95466.98
2018-10-02T18:05:03.359Z,95470.11
2018-10-02T18:07:34.166Z,95467.27
2018-10-02T18:10:05.235Z,95471.11
2018-10-02T18:12:35.763Z,95476.72
2018-10-02T18:15:07.988Z,95482.31
2018-10-02T18:17:38.845Z,95483.11
2018-10-02T18:20:09.459Z,95479.47
2018-10-02T18:22:39.992Z,95479.91
2018-10-02T18:25:11.580Z,95478.94
2018-10-02T18:27:42.154Z,95482.88
2018-10-02T18:30:13.268Z,95481.91
2018-10-02T18:32:44.215Z,95486.83
2018-10-02T18:35:15.288Z,95491.83
2018-10-02T18:37:46.390Z,95487.73
2018-10-02T18:40:16.931Z,95494.87
2018-10-02T18:42:47.925Z,95495.98
2018-10-02T18:45:19.002Z,95493.12
2018-10-02T18:47:50.071Z,95493.28
2018-10-02T18:50:21.284Z,95491.36
2018-10-02T18:52:52.763Z,95489.69
2018-10-02T18:55:24.246Z,95493.89
2018-10-02T18:57:55.372Z,95500.33
2018-10-02T19:00:27.038Z,95504.77
2018-10-02T19:02:57.601Z,95507.05
2018-10-02T19:05:30.251Z,95514.45
2018-10-02T19:08:01.610Z,95508.99
2018-10-02T19:10:33.039Z,95510.66
2018-10-02T19:13:04.058Z,95512.64
2018-10-02T19:15:39.913Z,95511.30
2018-10-02T19:18:10.781Z,95509.23
2018-10-02T19:20:46.026Z,95511.92
2018-10-02T19:23:17.003Z,95522.30
2018-10-02T19:25:54.187Z,95522.36
2018-10-02T19:28:25.602Z,95518.90
2018-10-02T19:31:00.879Z,95523.14
2018-10-02T19:33:31.426Z,95528.45
2018-10-02T19:36:03.698Z,95539.54
2018-10-02T19:38:39.924Z,95543.48
2018-10-02T19:41:11.224Z,95550.77
2018-10-02T19:43:41.740Z,95551.56
2018-10-02T19:46:19.395Z,95559.93
2018-10-02T19:48:49.984Z,95560.48
2018-10-02T19:51:26.047Z,95564.83
2018-10-02T19:53:56.613Z,95569.75
2018-10-02T19:56:27.295Z,95569.55
2018-10-02T19:58:58.267Z,95567.92
2018-10-02T20:01:28.945Z,95567.41
2018-10-02T20:04:00.424Z,95572.28
2018-10-02T20:06:31.251Z,95574.13
2018-10-02T20:09:02.145Z,95578.52
2018-10-02T20:11:33.091Z,95584.09
2018-10-02T20:14:04.049Z,95582.00
2018-10-02T20:16:35.487Z,95576.56
2018-10-02T20:19:06.272Z,95586.39
2018-10-02T20:21:37.524Z,95579.09
2018-10-02T20:24:08.277Z,95571.79
2018-10-02T20:26:40.261Z,95574.89
2018-10-02T20:29:11.168Z,95575.44
2018-10-02T20:31:46.068Z,95573.30
2018-10-02T20:34:17.108Z,95571.84
2018-10-02T20:36:48.541Z,95578.94
2018-10-02T20:39:19.807Z,95584.76
2018-10-02T20:41:51.152Z,95583.96
2018-10-02T20:44:22.454Z,95579.98
2018-10-02T20:46:54.120Z,95583.75
2018-10-02T20:49:25.168Z,95579.21
2018-10-02T20:51:55.697Z,95591.45
2018-10-02T20:54:26.243Z,95583.69
2018-10-02T20:56:57.152Z,95584.02
2018-10-02T20:59:28.135Z,95590.36
2018-10-02T21:01:58.858Z,95585.00
2018-10-02T21:04:29.974Z,95591.16
2018-10-02T21:07:02.449Z,95591.50
2018-10-02T21:09:32.999Z,95593.99
2018-10-02T21:12:03.751Z,95590.50
2018-10-02T21:14:34.863Z,95588.25
2018-10-02T21:17:07.800Z,95581.70
2018-10-02T21:19:39.009Z,95579.54
2018-10-02T21:22:10.244Z,95578.13
2018-10-02T21:24:40.637Z,95586.59
2018-10-02T21:27:12.411Z,95579.36
2018-10-02T21:29:42.981Z,95326.69
2018-10-02T21:32:14.162Z,95573.63
2018-10-02T21:34:45.254Z,95573.00
2018-10-02T21:37:16.775Z,95574.36
2018-10-02T21:39:47.507Z,95571.66
2018-10-02T21:42:18.566Z,95568.74
2018-10-02T21:44:49.106Z,95561.36
2018-10-02T21:47:20.452Z,95564.77
2018-10-02T21:49:51.646Z,95564.13
2018-10-02T21:52:22.904Z,95558.55
2018-10-02T21:54:53.627Z,95559.67
2018-10-02T21:57:25.605Z,95560.89
2018-10-02T21:59:57.074Z,95562.36
2018-10-02T22:02:28.537Z,95568.14
2018-10-02T22:04:59.689Z,95565.94
2018-10-02T22:07:30.834Z,95570.41
2018-10-02T22:10:02.512Z,95578.86
2018-10-02T22:12:33.285Z,95578.77
2018-10-02T22:15:04.706Z,95571.07
2018-10-02T22:17:36.117Z,95578.48
2018-10-02T22:20:06.784Z,95575.25
2018-10-02T22:22:37.359Z,95573.63
2018-10-02T22:25:08.603Z,95572.03
2018-10-02T22:27:41.130Z,95566.60
2018-10-02T22:30:13.503Z,95566.38
2018-10-02T22:32:45.028Z,95566.25
2018-10-02T22:35:15.631Z,95573.38
2018-10-02T22:37:47.473Z,95579.53
2018-10-02T22:40:18.746Z,95576.17
2018-10-02T22:42:49.777Z,95568.80
2018-10-02T22:45:21.009Z,95578.60
2018-10-02T22:47:53.465Z,95583.73
2018-10-02T22:50:24.363Z,95578.73
2018-10-02T22:52:54.806Z,95582.42
2018-10-02T22:55:25.548Z,95573.70
2018-10-02T22:57:57.920Z,95574.10
2018-10-02T23:00:28.591Z,95576.72
2018-10-02T23:02:59.605Z,95577.61
2018-10-02T23:05:30.214Z,95577.99
2018-10-02T23:08:01.979Z,95581.50
2018-10-02T23:10:32.988Z,95581.30
2018-10-02T23:13:04.015Z,95578.53
2018-10-02T23:15:35.296Z,95576.78
2018-10-02T23:18:06.060Z,95579.33
2018-10-02T23:20:36.762Z,95583.30
2018-10-02T23:23:07.677Z,95573.96
2018-10-02T23:25:38.185Z,95574.50
2018-10-02T23:28:10.633Z,95572.57
2018-10-02T23:30:42.799Z,95576.78
2018-10-02T23:33:13.666Z,95569.30
2018-10-02T23:35:44.887Z,95573.05
2018-10-02T23:38:16.058Z,95579.46
2018-10-02T23:40:47.097Z,95577.20
2018-10-02T23:43:18.275Z,95571.91
2018-10-02T23:45:48.742Z,95582.81
2018-10-02T23:48:19.899Z,95582.74
2018-10-02T23:50:51.140Z,95584.91
2018-10-02T23:53:21.748Z,95584.84
2018-10-02T23:55:52.507Z,95592.98
2018-10-02T23:58:23.791Z,95597.98
